sensor_id;sensor_type;location;lat;lon;timestamp;temperature;humidity
29571;DHT22;16814;52.118;11.436;2022-07-30T00:00:18;20.40;83.00
29571;DHT22;16814;52.118;11.436;2022-07-30T00:02:44;20.30;82.80
29571;DHT22;16814;52.118;11.436;2022-07-30T00:05:14;20.40;81.30
29571;DHT22;16814;52.118;11.436;2022-07-30T00:07:40;20.40;82.70
29571;DHT22;16814;52.118;11.436;2022-07-30T00:10:07;20.40;83.40
29571;DHT22;16814;52.118;11.436;2022-07-30T00:12:36;20.40;83.30
29571;DHT22;16814;52.118;11.436;2022-07-30T00:15:04;20.40;82.20
29571;DHT22;16814;52.118;11.436;2022-07-30T00:17:29;20.40;81.80
29571;DHT22;16814;52.118;11.436;2022-07-30T00:19:57;20.40;81.00
29571;DHT22;16814;52.118;11.436;2022-07-30T00:22:22;20.70;80.90
29571;DHT22;16814;52.118;11.436;2022-07-30T00:24:51;20.80;79.90
29571;DHT22;16814;52.118;11.436;2022-07-30T00:27:19;20.80;79.70
29571;DHT22;16814;52.118;11.436;2022-07-30T00:29:46;20.90;79.50
29571;DHT22;16814;52.118;11.436;2022-07-30T00:32:13;20.80;80.00
29571;DHT22;16814;52.118;11.436;2022-07-30T00:34:38;20.90;79.60
29571;DHT22;16814;52.118;11.436;2022-07-30T00:37:04;20.80;80.00
29571;DHT22;16814;52.118;11.436;2022-07-30T00:39:31;20.80;80.00
29571;DHT22;16814;52.118;11.436;2022-07-30T00:42:00;20.70;80.50
29571;DHT22;16814;52.118;11.436;2022-07-30T00:44:28;20.80;80.60
29571;DHT22;16814;52.118;11.436;2022-07-30T00:46:56;20.70;82.60
29571;DHT22;16814;52.118;11.436;2022-07-30T00:49:24;20.80;82.80
29571;DHT22;16814;52.118;11.436;2022-07-30T00:51:51;20.80;83.40
29571;DHT22;16814;52.118;11.436;2022-07-30T00:54:18;20.80;86.40
29571;DHT22;16814;52.118;11.436;2022-07-30T00:56:46;20.90;88.30
29571;DHT22;16814;52.118;11.436;2022-07-30T00:59:14;20.90;90.10
29571;DHT22;16814;52.118;11.436;2022-07-30T01:01:39;20.80;90.60
29571;DHT22;16814;52.118;11.436;2022-07-30T01:04:06;20.80;91.40
29571;DHT22;16814;52.118;11.436;2022-07-30T01:06:38;20.80;92.50
29571;DHT22;16814;52.118;11.436;2022-07-30T01:09:04;20.70;93.50
29571;DHT22;16814;52.118;11.436;2022-07-30T01:11:37;20.60;93.70
29571;DHT22;16814;52.118;11.436;2022-07-30T01:14:07;20.70;94.40
29571;DHT22;16814;52.118;11.436;2022-07-30T01:16:41;20.60;95.10
29571;DHT22;16814;52.118;11.436;2022-07-30T01:19:21;20.50;96.00
29571;DHT22;16814;52.118;11.436;2022-07-30T01:24:57;20.30;97.90
29571;DHT22;16814;52.118;11.436;2022-07-30T01:27:29;20.10;98.90
29571;DHT22;16814;52.118;11.436;2022-07-30T01:29:57;20.10;99.70
29571;DHT22;16814;52.118;11.436;2022-07-30T01:32:26;20.00;99.90
29571;DHT22;16814;52.118;11.436;2022-07-30T01:34:56;19.90;99.90
29571;DHT22;16814;52.118;11.436;2022-07-30T01:37:24;19.90;99.90
29571;DHT22;16814;52.118;11.436;2022-07-30T01:39:50;19.70;99.90
29571;DHT22;16814;52.118;11.436;2022-07-30T01:42:30;19.70;99.90
29571;DHT22;16814;52.118;11.436;2022-07-30T01:44:58;19.80;99.90
29571;DHT22;16814;52.118;11.436;2022-07-30T01:47:27;19.80;99.90
29571;DHT22;16814;52.118;11.436;2022-07-30T01:49:54;19.90;99.50
29571;DHT22;16814;52.118;11.436;2022-07-30T01:52:23;19.90;99.10
29571;DHT22;16814;52.118;11.436;2022-07-30T01:54:55;19.80;99.00
29571;DHT22;16814;52.118;11.436;2022-07-30T01:57:26;19.90;98.80
29571;DHT22;16814;52.118;11.436;2022-07-30T01:59:56;19.90;99.90
29571;DHT22;16814;52.118;11.436;2022-07-30T02:02:23;19.80;99.90
29571;DHT22;16814;52.118;11.436;2022-07-30T02:04:50;19.60;99.90
29571;DHT22;16814;52.118;11.436;2022-07-30T02:07:22;19.60;99.90
29571;DHT22;16814;52.118;11.436;2022-07-30T02:10:12;19.60;99.90
29571;DHT22;16814;52.118;11.436;2022-07-30T02:12:45;19.80;99.90
29571;DHT22;16814;52.118;11.436;2022-07-30T02:15:40;19.80;99.90
29571;DHT22;16814;52.118;11.436;2022-07-30T02:18:13;19.80;99.90
29571;DHT22;16814;52.118;11.436;2022-07-30T02:20:45;19.80;99.90
29571;DHT22;16814;52.118;11.436;2022-07-30T02:23:14;19.60;99.90
29571;DHT22;16814;52.118;11.436;2022-07-30T02:25:43;19.60;99.90
29571;DHT22;16814;52.118;11.436;2022-07-30T02:28:16;19.70;99.90
29571;DHT22;16814;52.118;11.436;2022-07-30T02:30:51;19.80;99.90
29571;DHT22;16814;52.118;11.436;2022-07-30T02:33:21;20.00;99.90
29571;DHT22;16814;52.118;11.436;2022-07-30T02:35:50;19.90;99.90
29571;DHT22;16814;52.118;11.436;2022-07-30T02:38:17;19.90;99.90
29571;DHT22;16814;52.118;11.436;2022-07-30T02:40:45;19.80;99.90
29571;DHT22;16814;52.118;11.436;2022-07-30T02:43:17;19.80;99.90
29571;DHT22;16814;52.118;11.436;2022-07-30T02:45:47;19.70;99.90
29571;DHT22;16814;52.118;11.436;2022-07-30T02:48:14;19.60;99.90
29571;DHT22;16814;52.118;11.436;2022-07-30T02:50:44;19.60;99.90
29571;DHT22;16814;52.118;11.436;2022-07-30T02:53:11;19.40;99.90
29571;DHT22;16814;52.118;11.436;2022-07-30T02:55:40;19.30;99.90
29571;DHT22;16814;52.118;11.436;2022-07-30T02:58:06;19.00;99.90
29571;DHT22;16814;52.118;11.436;2022-07-30T03:00:34;18.60;99.90
29571;DHT22;16814;52.118;11.436;2022-07-30T03:03:06;18.40;99.90
29571;DHT22;16814;52.118;11.436;2022-07-30T03:05:36;18.40;99.90
29571;DHT22;16814;52.118;11.436;2022-07-30T03:08:03;18.40;99.90
29571;DHT22;16814;52.118;11.436;2022-07-30T03:10:34;18.60;99.90
29571;DHT22;16814;52.118;11.436;2022-07-30T03:13:05;18.80;99.90
29571;DHT22;16814;52.118;11.436;2022-07-30T03:15:33;18.90;99.90
29571;DHT22;16814;52.118;11.436;2022-07-30T03:18:00;19.10;99.90
29571;DHT22;16814;52.118;11.436;2022-07-30T03:20:30;19.10;99.90
29571;DHT22;16814;52.118;11.436;2022-07-30T03:23:01;19.20;99.90
29571;DHT22;16814;52.118;11.436;2022-07-30T03:25:30;19.20;99.90
29571;DHT22;16814;52.118;11.436;2022-07-30T03:27:59;19.30;99.90
29571;DHT22;16814;52.118;11.436;2022-07-30T03:30:27;19.30;99.90
29571;DHT22;16814;52.118;11.436;2022-07-30T03:32:54;19.30;99.90
29571;DHT22;16814;52.118;11.436;2022-07-30T03:35:21;19.30;99.90
29571;DHT22;16814;52.118;11.436;2022-07-30T03:37:56;19.20;99.90
29571;DHT22;16814;52.118;11.436;2022-07-30T03:40:23;19.20;99.90
29571;DHT22;16814;52.118;11.436;2022-07-30T03:42:49;19.10;99.90
29571;DHT22;16814;52.118;11.436;2022-07-30T03:45:27;19.20;99.90
29571;DHT22;16814;52.118;11.436;2022-07-30T03:47:53;19.10;99.90
29571;DHT22;16814;52.118;11.436;2022-07-30T03:50:19;19.00;99.90
29571;DHT22;16814;52.118;11.436;2022-07-30T03:52:46;19.00;99.90
29571;DHT22;16814;52.118;11.436;2022-07-30T03:55:15;18.80;99.90
29571;DHT22;16814;52.118;11.436;2022-07-30T03:57:43;18.80;99.90
29571;DHT22;16814;52.118;11.436;2022-07-30T04:00:19;18.70;99.90
29571;DHT22;16814;52.118;11.436;2022-07-30T04:02:46;18.60;99.90
29571;DHT22;16814;52.118;11.436;2022-07-30T04:05:14;18.60;99.90
29571;DHT22;16814;52.118;11.436;2022-07-30T04:07:42;18.50;99.90
29571;DHT22;16814;52.118;11.436;2022-07-30T04:10:08;18.40;99.90
29571;DHT22;16814;52.118;11.436;2022-07-30T04:12:37;18.40;99.90
29571;DHT22;16814;52.118;11.436;2022-07-30T04:15:03;18.30;99.90
29571;DHT22;16814;52.118;11.436;2022-07-30T04:17:38;18.30;99.90
29571;DHT22;16814;52.118;11.436;2022-07-30T04:20:09;18.30;99.90
29571;DHT22;16814;52.118;11.436;2022-07-30T04:22:39;18.20;99.90
29571;DHT22;16814;52.118;11.436;2022-07-30T04:25:09;18.20;99.90
29571;DHT22;16814;52.118;11.436;2022-07-30T04:27:36;18.20;99.90
29571;DHT22;16814;52.118;11.436;2022-07-30T04:30:05;18.20;99.90
29571;DHT22;16814;52.118;11.436;2022-07-30T04:32:34;18.20;99.90
29571;DHT22;16814;52.118;11.436;2022-07-30T04:35:01;18.20;99.90
29571;DHT22;16814;52.118;11.436;2022-07-30T04:37:32;18.20;99.90
29571;DHT22;16814;52.118;11.436;2022-07-30T04:39:59;18.20;99.90
29571;DHT22;16814;52.118;11.436;2022-07-30T04:42:29;18.20;99.90
29571;DHT22;16814;52.118;11.436;2022-07-30T04:44:57;18.20;99.90
29571;DHT22;16814;52.118;11.436;2022-07-30T04:47:25;18.20;99.90
29571;DHT22;16814;52.118;11.436;2022-07-30T04:49:53;18.20;99.90
29571;DHT22;16814;52.118;11.436;2022-07-30T04:52:22;18.20;99.90
29571;DHT22;16814;52.118;11.436;2022-07-30T04:54:53;18.20;99.90
29571;DHT22;16814;52.118;11.436;2022-07-30T04:57:23;18.30;99.90
29571;DHT22;16814;52.118;11.436;2022-07-30T04:59:49;18.30;99.90
29571;DHT22;16814;52.118;11.436;2022-07-30T05:02:17;18.30;99.90
29571;DHT22;16814;52.118;11.436;2022-07-30T05:04:49;18.20;99.90
29571;DHT22;16814;52.118;11.436;2022-07-30T05:07:18;18.20;99.90
29571;DHT22;16814;52.118;11.436;2022-07-30T05:09:46;18.20;99.90
29571;DHT22;16814;52.118;11.436;2022-07-30T05:12:14;18.10;99.90
29571;DHT22;16814;52.118;11.436;2022-07-30T05:14:40;18.10;99.90
29571;DHT22;16814;52.118;11.436;2022-07-30T05:17:07;18.10;99.90
29571;DHT22;16814;52.118;11.436;2022-07-30T05:19:34;18.20;99.90
29571;DHT22;16814;52.118;11.436;2022-07-30T05:22:02;18.20;99.90
29571;DHT22;16814;52.118;11.436;2022-07-30T05:24:29;18.20;99.90
29571;DHT22;16814;52.118;11.436;2022-07-30T05:26:57;18.20;99.90
29571;DHT22;16814;52.118;11.436;2022-07-30T05:29:22;18.20;99.90
29571;DHT22;16814;52.118;11.436;2022-07-30T05:31:50;18.30;99.90
29571;DHT22;16814;52.118;11.436;2022-07-30T05:34:16;18.30;99.90
29571;DHT22;16814;52.118;11.436;2022-07-30T05:36:43;18.40;99.90
29571;DHT22;16814;52.118;11.436;2022-07-30T05:39:11;18.40;99.90
29571;DHT22;16814;52.118;11.436;2022-07-30T05:41:39;18.30;99.90
29571;DHT22;16814;52.118;11.436;2022-07-30T05:44:07;18.50;99.90
29571;DHT22;16814;52.118;11.436;2022-07-30T05:46:34;18.60;99.90
29571;DHT22;16814;52.118;11.436;2022-07-30T05:49:02;18.70;99.90
29571;DHT22;16814;52.118;11.436;2022-07-30T05:51:30;18.60;99.90
29571;DHT22;16814;52.118;11.436;2022-07-30T05:53:57;18.60;99.90
29571;DHT22;16814;52.118;11.436;2022-07-30T05:56:24;18.50;99.90
29571;DHT22;16814;52.118;11.436;2022-07-30T05:58:49;18.50;99.90
29571;DHT22;16814;52.118;11.436;2022-07-30T06:01:16;18.50;99.90
29571;DHT22;16814;52.118;11.436;2022-07-30T06:03:41;18.50;99.90
29571;DHT22;16814;52.118;11.436;2022-07-30T06:06:11;18.40;99.90
29571;DHT22;16814;52.118;11.436;2022-07-30T06:08:39;18.40;99.90
29571;DHT22;16814;52.118;11.436;2022-07-30T06:11:06;18.40;99.90
29571;DHT22;16814;52.118;11.436;2022-07-30T06:13:35;18.50;99.90
29571;DHT22;16814;52.118;11.436;2022-07-30T06:16:02;18.50;99.90
29571;DHT22;16814;52.118;11.436;2022-07-30T06:18:29;18.50;99.90
29571;DHT22;16814;52.118;11.436;2022-07-30T06:20:54;18.50;99.90
29571;DHT22;16814;52.118;11.436;2022-07-30T06:23:22;18.50;99.90
29571;DHT22;16814;52.118;11.436;2022-07-30T06:25:49;18.50;99.90
29571;DHT22;16814;52.118;11.436;2022-07-30T06:28:16;18.50;99.90
29571;DHT22;16814;52.118;11.436;2022-07-30T06:30:50;18.60;99.90
29571;DHT22;16814;52.118;11.436;2022-07-30T06:33:18;18.50;99.90
29571;DHT22;16814;52.118;11.436;2022-07-30T06:35:46;18.50;99.90
29571;DHT22;16814;52.118;11.436;2022-07-30T06:38:14;18.50;99.90
29571;DHT22;16814;52.118;11.436;2022-07-30T06:40:40;18.50;99.90
29571;DHT22;16814;52.118;11.436;2022-07-30T06:43:08;18.50;99.90
29571;DHT22;16814;52.118;11.436;2022-07-30T06:45:34;18.50;99.90
29571;DHT22;16814;52.118;11.436;2022-07-30T06:48:02;18.10;99.90
29571;DHT22;16814;52.118;11.436;2022-07-30T06:50:29;18.40;99.90
29571;DHT22;16814;52.118;11.436;2022-07-30T06:52:55;18.40;99.90
29571;DHT22;16814;52.118;11.436;2022-07-30T06:55:20;18.30;99.90
29571;DHT22;16814;52.118;11.436;2022-07-30T06:57:47;18.30;99.90
29571;DHT22;16814;52.118;11.436;2022-07-30T07:00:15;18.30;99.90
29571;DHT22;16814;52.118;11.436;2022-07-30T07:02:42;18.30;99.90
29571;DHT22;16814;52.118;11.436;2022-07-30T07:05:09;18.30;99.90
29571;DHT22;16814;52.118;11.436;2022-07-30T07:07:36;18.30;99.90
29571;DHT22;16814;52.118;11.436;2022-07-30T07:10:05;18.30;99.90
29571;DHT22;16814;52.118;11.436;2022-07-30T07:12:30;18.30;99.90
29571;DHT22;16814;52.118;11.436;2022-07-30T07:14:58;18.20;99.90
29571;DHT22;16814;52.118;11.436;2022-07-30T07:17:25;18.00;99.90
29571;DHT22;16814;52.118;11.436;2022-07-30T07:19:58;17.90;99.90
29571;DHT22;16814;52.118;11.436;2022-07-30T07:22:25;17.70;99.90
29571;DHT22;16814;52.118;11.436;2022-07-30T07:24:52;17.60;99.90
29571;DHT22;16814;52.118;11.436;2022-07-30T07:27:19;17.50;99.90
29571;DHT22;16814;52.118;11.436;2022-07-30T07:29:46;17.50;99.90
29571;DHT22;16814;52.118;11.436;2022-07-30T07:32:11;17.40;99.90
29571;DHT22;16814;52.118;11.436;2022-07-30T07:34:37;17.40;99.90
29571;DHT22;16814;52.118;11.436;2022-07-30T07:37:05;17.50;99.90
29571;DHT22;16814;52.118;11.436;2022-07-30T07:39:34;17.70;99.90
29571;DHT22;16814;52.118;11.436;2022-07-30T07:42:00;17.60;99.90
29571;DHT22;16814;52.118;11.436;2022-07-30T07:44:28;17.80;99.90
29571;DHT22;16814;52.118;11.436;2022-07-30T07:46:55;17.90;99.90
29571;DHT22;16814;52.118;11.436;2022-07-30T07:49:23;17.70;99.90
29571;DHT22;16814;52.118;11.436;2022-07-30T07:51:50;17.70;99.90
29571;DHT22;16814;52.118;11.436;2022-07-30T07:54:18;17.80;99.90
29571;DHT22;16814;52.118;11.436;2022-07-30T07:56:44;17.80;99.90
29571;DHT22;16814;52.118;11.436;2022-07-30T07:59:17;17.70;99.90
29571;DHT22;16814;52.118;11.436;2022-07-30T08:01:43;17.70;99.90
29571;DHT22;16814;52.118;11.436;2022-07-30T08:04:13;17.50;99.90
29571;DHT22;16814;52.118;11.436;2022-07-30T08:06:39;17.50;99.90
29571;DHT22;16814;52.118;11.436;2022-07-30T08:09:09;17.70;99.90
29571;DHT22;16814;52.118;11.436;2022-07-30T08:11:35;17.90;99.90
29571;DHT22;16814;52.118;11.436;2022-07-30T08:14:00;18.00;99.90
29571;DHT22;16814;52.118;11.436;2022-07-30T08:16:28;18.00;99.90
29571;DHT22;16814;52.118;11.436;2022-07-30T08:18:58;18.20;99.90
29571;DHT22;16814;52.118;11.436;2022-07-30T08:21:25;18.20;99.90
29571;DHT22;16814;52.118;11.436;2022-07-30T08:23:52;18.20;99.90
29571;DHT22;16814;52.118;11.436;2022-07-30T08:26:18;18.20;99.90
29571;DHT22;16814;52.118;11.436;2022-07-30T08:28:44;18.30;99.90
29571;DHT22;16814;52.118;11.436;2022-07-30T08:31:11;18.30;99.90
29571;DHT22;16814;52.118;11.436;2022-07-30T08:33:39;18.30;99.90
29571;DHT22;16814;52.118;11.436;2022-07-30T08:36:05;18.40;99.90
29571;DHT22;16814;52.118;11.436;2022-07-30T08:38:32;18.60;99.90
29571;DHT22;16814;52.118;11.436;2022-07-30T08:41:01;18.80;99.90
29571;DHT22;16814;52.118;11.436;2022-07-30T08:43:28;18.90;99.90
29571;DHT22;16814;52.118;11.436;2022-07-30T08:45:57;19.00;99.90
29571;DHT22;16814;52.118;11.436;2022-07-30T08:48:24;19.10;99.90
29571;DHT22;16814;52.118;11.436;2022-07-30T08:50:52;19.10;99.90
29571;DHT22;16814;52.118;11.436;2022-07-30T08:53:22;19.00;99.90
29571;DHT22;16814;52.118;11.436;2022-07-30T08:55:51;19.00;99.90
29571;DHT22;16814;52.118;11.436;2022-07-30T08:58:45;19.00;99.90
29571;DHT22;16814;52.118;11.436;2022-07-30T09:01:14;19.00;99.90
29571;DHT22;16814;52.118;11.436;2022-07-30T09:03:40;18.80;99.90
29571;DHT22;16814;52.118;11.436;2022-07-30T09:06:05;18.70;99.90
29571;DHT22;16814;52.118;11.436;2022-07-30T09:08:33;18.70;99.90
29571;DHT22;16814;52.118;11.436;2022-07-30T09:10:59;18.70;99.90
29571;DHT22;16814;52.118;11.436;2022-07-30T09:13:39;18.70;99.90
29571;DHT22;16814;52.118;11.436;2022-07-30T09:16:24;18.70;99.90
29571;DHT22;16814;52.118;11.436;2022-07-30T09:18:51;18.60;99.90
29571;DHT22;16814;52.118;11.436;2022-07-30T09:21:25;18.70;99.90
29571;DHT22;16814;52.118;11.436;2022-07-30T09:24:07;18.70;99.90
29571;DHT22;16814;52.118;11.436;2022-07-30T09:26:59;18.70;99.90
29571;DHT22;16814;52.118;11.436;2022-07-30T09:29:28;18.80;99.90
29571;DHT22;16814;52.118;11.436;2022-07-30T09:32:06;18.80;99.90
29571;DHT22;16814;52.118;11.436;2022-07-30T09:34:38;18.80;99.90
29571;DHT22;16814;52.118;11.436;2022-07-30T09:37:28;18.80;99.90
29571;DHT22;16814;52.118;11.436;2022-07-30T09:39:56;19.00;99.90
29571;DHT22;16814;52.118;11.436;2022-07-30T09:42:25;18.80;99.90
29571;DHT22;16814;52.118;11.436;2022-07-30T09:45:11;18.90;99.90
29571;DHT22;16814;52.118;11.436;2022-07-30T09:47:45;18.90;99.90
29571;DHT22;16814;52.118;11.436;2022-07-30T09:50:15;19.00;99.90
29571;DHT22;16814;52.118;11.436;2022-07-30T09:52:46;19.10;99.90
29571;DHT22;16814;52.118;11.436;2022-07-30T09:55:36;19.10;99.90
29571;DHT22;16814;52.118;11.436;2022-07-30T09:58:05;19.00;99.90
29571;DHT22;16814;52.118;11.436;2022-07-30T10:00:37;19.10;99.90
29571;DHT22;16814;52.118;11.436;2022-07-30T10:03:23;19.20;99.90
29571;DHT22;16814;52.118;11.436;2022-07-30T10:05:53;19.20;99.90
29571;DHT22;16814;52.118;11.436;2022-07-30T10:11:12;19.20;99.90
29571;DHT22;16814;52.118;11.436;2022-07-30T10:13:40;19.30;99.90
29571;DHT22;16814;52.118;11.436;2022-07-30T10:16:07;19.30;99.90
29571;DHT22;16814;52.118;11.436;2022-07-30T10:18:35;19.40;99.90
29571;DHT22;16814;52.118;11.436;2022-07-30T10:21:03;19.40;99.90
29571;DHT22;16814;52.118;11.436;2022-07-30T10:23:31;19.40;99.90
29571;DHT22;16814;52.118;11.436;2022-07-30T10:25:59;19.40;99.90
29571;DHT22;16814;52.118;11.436;2022-07-30T10:28:29;19.50;99.90
29571;DHT22;16814;52.118;11.436;2022-07-30T10:30:58;19.50;99.90
29571;DHT22;16814;52.118;11.436;2022-07-30T10:33:28;19.80;99.90
29571;DHT22;16814;52.118;11.436;2022-07-30T10:35:57;20.00;99.90
29571;DHT22;16814;52.118;11.436;2022-07-30T10:38:29;20.10;99.90
29571;DHT22;16814;52.118;11.436;2022-07-30T10:41:16;20.20;99.90
29571;DHT22;16814;52.118;11.436;2022-07-30T10:49:18;20.30;99.90
29571;DHT22;16814;52.118;11.436;2022-07-30T10:51:52;20.30;99.90
29571;DHT22;16814;52.118;11.436;2022-07-30T10:57:11;20.70;99.90
29571;DHT22;16814;52.118;11.436;2022-07-30T11:02:26;20.70;99.90
29571;DHT22;16814;52.118;11.436;2022-07-30T11:05:20;20.80;99.90
29571;DHT22;16814;52.118;11.436;2022-07-30T11:07:47;20.80;99.90
29571;DHT22;16814;52.118;11.436;2022-07-30T11:10:33;20.80;99.90
29571;DHT22;16814;52.118;11.436;2022-07-30T11:13:51;20.90;99.90
29571;DHT22;16814;52.118;11.436;2022-07-30T11:16:20;20.90;99.90
29571;DHT22;16814;52.118;11.436;2022-07-30T11:19:09;21.00;99.90
29571;DHT22;16814;52.118;11.436;2022-07-30T11:24:48;21.10;99.90
29571;DHT22;16814;52.118;11.436;2022-07-30T11:27:33;21.00;99.90
29571;DHT22;16814;52.118;11.436;2022-07-30T11:30:03;21.00;99.90
29571;DHT22;16814;52.118;11.436;2022-07-30T11:32:32;21.00;99.90
29571;DHT22;16814;52.118;11.436;2022-07-30T11:35:19;21.00;99.90
29571;DHT22;16814;52.118;11.436;2022-07-30T11:38:12;21.00;99.90
29571;DHT22;16814;52.118;11.436;2022-07-30T11:43:31;20.90;99.90
29571;DHT22;16814;52.118;11.436;2022-07-30T11:46:18;20.90;99.90
29571;DHT22;16814;52.118;11.436;2022-07-30T11:49:01;20.90;99.90
29571;DHT22;16814;52.118;11.436;2022-07-30T11:51:44;21.00;99.90
29571;DHT22;16814;52.118;11.436;2022-07-30T11:54:15;21.00;99.90
29571;DHT22;16814;52.118;11.436;2022-07-30T11:56:54;21.10;99.90
29571;DHT22;16814;52.118;11.436;2022-07-30T11:59:22;21.10;99.90
29571;DHT22;16814;52.118;11.436;2022-07-30T12:01:51;21.20;99.90
29571;DHT22;16814;52.118;11.436;2022-07-30T12:04:18;21.10;99.90
29571;DHT22;16814;52.118;11.436;2022-07-30T12:06:45;21.10;99.90
29571;DHT22;16814;52.118;11.436;2022-07-30T12:09:19;21.10;99.90
29571;DHT22;16814;52.118;11.436;2022-07-30T12:11:46;21.10;99.90
29571;DHT22;16814;52.118;11.436;2022-07-30T12:14:38;21.10;99.90
29571;DHT22;16814;52.118;11.436;2022-07-30T12:17:08;21.20;99.90
29571;DHT22;16814;52.118;11.436;2022-07-30T12:19:48;21.20;99.90
29571;DHT22;16814;52.118;11.436;2022-07-30T12:22:15;21.20;99.90
29571;DHT22;16814;52.118;11.436;2022-07-30T12:24:44;21.30;99.90
29571;DHT22;16814;52.118;11.436;2022-07-30T12:27:13;21.20;99.90
29571;DHT22;16814;52.118;11.436;2022-07-30T12:29:41;21.20;99.90
29571;DHT22;16814;52.118;11.436;2022-07-30T12:32:07;21.20;99.90
29571;DHT22;16814;52.118;11.436;2022-07-30T12:34:34;21.20;99.90
29571;DHT22;16814;52.118;11.436;2022-07-30T12:37:08;21.30;99.90
29571;DHT22;16814;52.118;11.436;2022-07-30T12:39:35;21.30;99.90
29571;DHT22;16814;52.118;11.436;2022-07-30T12:42:02;21.30;99.90
29571;DHT22;16814;52.118;11.436;2022-07-30T12:44:40;21.40;99.90
29571;DHT22;16814;52.118;11.436;2022-07-30T12:47:20;21.50;99.90
29571;DHT22;16814;52.118;11.436;2022-07-30T12:49:47;21.50;99.90
29571;DHT22;16814;52.118;11.436;2022-07-30T12:52:25;21.50;99.90
29571;DHT22;16814;52.118;11.436;2022-07-30T12:58:04;21.60;99.90
29571;DHT22;16814;52.118;11.436;2022-07-30T13:00:48;21.70;99.90
29571;DHT22;16814;52.118;11.436;2022-07-30T13:03:26;21.80;99.90
29571;DHT22;16814;52.118;11.436;2022-07-30T13:05:58;21.90;99.90
29571;DHT22;16814;52.118;11.436;2022-07-30T13:08:44;21.90;99.90
29571;DHT22;16814;52.118;11.436;2022-07-30T13:11:11;22.00;99.90
29571;DHT22;16814;52.118;11.436;2022-07-30T13:13:36;22.10;99.90
29571;DHT22;16814;52.118;11.436;2022-07-30T13:16:03;22.20;99.90
29571;DHT22;16814;52.118;11.436;2022-07-30T13:18:42;22.30;99.90
29571;DHT22;16814;52.118;11.436;2022-07-30T13:21:08;22.50;99.90
29571;DHT22;16814;52.118;11.436;2022-07-30T13:23:43;22.40;99.90
29571;DHT22;16814;52.118;11.436;2022-07-30T13:26:10;22.50;99.90
29571;DHT22;16814;52.118;11.436;2022-07-30T13:28:38;22.50;99.90
29571;DHT22;16814;52.118;11.436;2022-07-30T13:31:05;22.60;99.90
29571;DHT22;16814;52.118;11.436;2022-07-30T13:33:33;22.60;99.90
29571;DHT22;16814;52.118;11.436;2022-07-30T13:36:06;22.70;99.90
29571;DHT22;16814;52.118;11.436;2022-07-30T13:38:34;22.70;99.90
29571;DHT22;16814;52.118;11.436;2022-07-30T13:41:08;22.70;99.90
29571;DHT22;16814;52.118;11.436;2022-07-30T13:43:35;22.70;99.90
29571;DHT22;16814;52.118;11.436;2022-07-30T13:46:04;22.60;99.90
29571;DHT22;16814;52.118;11.436;2022-07-30T13:48:37;22.60;99.90
29571;DHT22;16814;52.118;11.436;2022-07-30T13:51:04;22.60;99.90
29571;DHT22;16814;52.118;11.436;2022-07-30T13:53:32;22.60;99.90
29571;DHT22;16814;52.118;11.436;2022-07-30T13:55:59;22.60;99.90
29571;DHT22;16814;52.118;11.436;2022-07-30T13:58:25;22.60;99.90
29571;DHT22;16814;52.118;11.436;2022-07-30T14:00:51;22.50;99.90
29571;DHT22;16814;52.118;11.436;2022-07-30T14:03:19;22.50;99.90
29571;DHT22;16814;52.118;11.436;2022-07-30T14:05:47;22.50;99.90
29571;DHT22;16814;52.118;11.436;2022-07-30T14:08:14;22.50;99.90
29571;DHT22;16814;52.118;11.436;2022-07-30T14:10:41;22.50;99.90
29571;DHT22;16814;52.118;11.436;2022-07-30T14:13:09;22.50;99.90
29571;DHT22;16814;52.118;11.436;2022-07-30T14:15:36;22.50;99.90
29571;DHT22;16814;52.118;11.436;2022-07-30T14:18:04;22.50;99.90
29571;DHT22;16814;52.118;11.436;2022-07-30T14:20:29;22.50;99.90
29571;DHT22;16814;52.118;11.436;2022-07-30T14:23:05;22.50;99.90
29571;DHT22;16814;52.118;11.436;2022-07-30T14:25:32;22.50;99.90
29571;DHT22;16814;52.118;11.436;2022-07-30T14:28:02;22.60;99.90
29571;DHT22;16814;52.118;11.436;2022-07-30T14:30:29;22.60;99.90
29571;DHT22;16814;52.118;11.436;2022-07-30T14:32:56;22.70;99.90
29571;DHT22;16814;52.118;11.436;2022-07-30T14:35:23;22.70;99.90
29571;DHT22;16814;52.118;11.436;2022-07-30T14:37:50;22.70;99.90
29571;DHT22;16814;52.118;11.436;2022-07-30T14:40:16;22.70;99.90
29571;DHT22;16814;52.118;11.436;2022-07-30T14:42:42;22.70;99.90
29571;DHT22;16814;52.118;11.436;2022-07-30T14:45:10;22.70;99.90
29571;DHT22;16814;52.118;11.436;2022-07-30T14:47:38;22.80;99.90
29571;DHT22;16814;52.118;11.436;2022-07-30T14:50:09;22.80;99.90
29571;DHT22;16814;52.118;11.436;2022-07-30T14:52:36;22.90;99.90
29571;DHT22;16814;52.118;11.436;2022-07-30T14:55:07;23.00;99.90
29571;DHT22;16814;52.118;11.436;2022-07-30T14:57:35;23.10;99.90
29571;DHT22;16814;52.118;11.436;2022-07-30T15:00:01;23.20;99.90
29571;DHT22;16814;52.118;11.436;2022-07-30T15:02:26;23.20;99.90
29571;DHT22;16814;52.118;11.436;2022-07-30T15:04:52;23.30;99.90
29571;DHT22;16814;52.118;11.436;2022-07-30T15:07:19;23.30;99.90
29571;DHT22;16814;52.118;11.436;2022-07-30T15:09:45;23.30;99.90
29571;DHT22;16814;52.118;11.436;2022-07-30T15:12:12;23.30;99.90
29571;DHT22;16814;52.118;11.436;2022-07-30T15:14:41;23.30;99.90
29571;DHT22;16814;52.118;11.436;2022-07-30T15:17:07;23.30;99.90
29571;DHT22;16814;52.118;11.436;2022-07-30T15:19:35;23.30;99.90
29571;DHT22;16814;52.118;11.436;2022-07-30T15:22:02;23.30;99.90
29571;DHT22;16814;52.118;11.436;2022-07-30T15:24:29;23.30;99.90
29571;DHT22;16814;52.118;11.436;2022-07-30T15:26:57;23.30;99.90
29571;DHT22;16814;52.118;11.436;2022-07-30T15:29:24;23.30;99.10
29571;DHT22;16814;52.118;11.436;2022-07-30T15:31:54;23.40;99.80
29571;DHT22;16814;52.118;11.436;2022-07-30T15:34:21;23.50;99.10
29571;DHT22;16814;52.118;11.436;2022-07-30T15:36:47;23.50;99.00
29571;DHT22;16814;52.118;11.436;2022-07-30T15:39:13;23.50;98.00
29571;DHT22;16814;52.118;11.436;2022-07-30T15:41:39;23.60;97.10
29571;DHT22;16814;52.118;11.436;2022-07-30T15:44:05;23.60;96.50
29571;DHT22;16814;52.118;11.436;2022-07-30T15:46:32;23.60;95.90
29571;DHT22;16814;52.118;11.436;2022-07-30T15:48:58;23.70;94.90
29571;DHT22;16814;52.118;11.436;2022-07-30T15:51:25;23.60;94.70
29571;DHT22;16814;52.118;11.436;2022-07-30T15:53:53;23.60;93.90
29571;DHT22;16814;52.118;11.436;2022-07-30T15:56:19;23.60;94.00